Terminal Aerodrome Forecast
Issued by NWS

Home | Current Version | Previous Version | Text Only | Print | Product List | Glossary Off
Versions: 1 2 3 4 5 6 7 8 9 10 11 12 13 14 15 16 17 18 19 20 21

083
FTUS43 KGRB 241724
TAFMTW
TAF
KMTW 241724Z 2418/2518 11012KT P6SM SCT025 SCT060
     FM250100 11004KT P6SM SCT035 BKN200
     FM250900 14006KT P6SM BKN035
     FM251500 15013G18KT P6SM VCSH SCT015 OVC030 PROB30 2516/2518
      5SM -SHRA BR SCT007 OVC015=

USA.gov is the U.S. government's official web portal to all federal, state and local government web resources and services.